Portada
METAR-TAF:

METAR-TAF

Aeropuertos :

Auckland, Nueva Zelanda

Aeropuerto Internacional de Auckland

latitud: 37-01S, longitud: 174-48E, altitud: 7 m

Observación

El informe se hizo hace 45 minutos, a las 14:30 UTC
Viento 5 kt del oeste-suroeste
Temperatura 19°C
Humedad 88%
Presión 1013 hPa
Visibilidad 10 km o más

METAR: NZAA 111430Z AUTO 25005KT 9999 FEW014/// BKN049/// 19/17 Q1013

Hora: 04:15 (15:15 UTC)

Pronóstico

El informe se hizo hace 4 horas y 0 minutos, a las 11:15 UTC
Pronóstico válido del 11 a las 12 UTC al 12 a las 12 UTC
Viento 10 kt del oeste-suroeste
Visibilidad 10 km o más
Escasas nubes a una altura de 2000 ft
Nubes dispersas a una altura de 5000 ft

TAF: NZAA 111115Z 1112/1212 24010KT 9999 FEW020 SCT050

Observaciones y pronósticos meteorológicos de más de 4000 aeropuertos (mensajes METAR y TAF).

Los puntos amarillos y rojos representan las estaciones disponibles.

Ponga el ratón en el punto deseado para ver el nombre de la estación.

Haga clic para ver las observaciones y los pronósticos meteorológicos.

Para cambiar el mapa : haga clic en los botones verdes con una cruz de color negro para hacer un zoom, en el botón verde con un guión para alejar o en las flechas verdes para mapas adyacentes.


METAR-TAF: